Time;durP1;ratioP1;P1;durP2;ratioP2;P2;SDS_P1;SDS_P2;PMS_P1;PMS_P2;Temp;Humidity;BMP_temperature;BMP_pressure;BME280_temperature;BME280_humidity;BME280_pressure;Samples;Min_cycle;Max_cycle;Signal;HPM_P1;HPM_P2
2023/09/23 00:00:57;;;;;;;0.57;0.57;;;15.20;99.90;;;;;;5037755;28;20035;-64
2023/09/23 00:03:23;;;;;;;0.73;0.50;;;15.20;99.90;;;;;;5037258;28;20029;-63
2023/09/23 00:05:52;;;;;;;0.85;0.60;;;15.20;99.90;;;;;;5055432;28;20017;-64
2023/09/23 00:08:18;;;;;;;0.88;0.60;;;15.10;99.90;;;;;;5037599;28;20531;-64
2023/09/23 00:10:50;;;;;;;0.40;0.40;;;15.20;99.90;;;;;;5055369;28;20032;-63
2023/09/23 00:13:17;;;;;;;0.30;0.30;;;15.20;99.90;;;;;;5037385;28;20029;-63
2023/09/23 00:15:43;;;;;;;0.40;0.40;;;15.20;99.90;;;;;;5055052;28;20419;-63
2023/09/23 00:18:09;;;;;;;0.50;0.50;;;15.20;99.90;;;;;;5054907;28;20100;-64
2023/09/23 00:20:38;;;;;;;0.80;0.30;;;15.20;99.90;;;;;;5037141;28;20029;-63
2023/09/23 00:23:05;;;;;;;0.75;0.40;;;15.20;99.90;;;;;;5054688;28;20408;-63
2023/09/23 00:25:35;;;;;;;0.75;0.70;;;15.30;99.90;;;;;;5054957;28;20037;-63
2023/09/23 00:28:02;;;;;;;0.68;0.68;;;15.30;99.90;;;;;;5055283;28;20029;-64
2023/09/23 00:30:27;;;;;;;0.60;0.47;;;15.40;99.90;;;;;;5054910;28;20028;-63
2023/09/23 00:32:53;;;;;;;0.30;0.30;;;15.40;99.90;;;;;;5055033;28;20025;-64
2023/09/23 00:35:19;;;;;;;0.50;0.50;;;15.40;99.90;;;;;;5049839;28;20048;-63
2023/09/23 00:37:49;;;;;;;0.60;0.40;;;15.50;99.90;;;;;;5073813;28;20115;-64
2023/09/23 00:40:29;;;;;;;0.70;0.47;;;15.50;99.90;;;;;;5074753;28;20111;-64
2023/09/23 00:43:05;;;;;;;0.50;0.50;;;15.50;99.90;;;;;;5074908;28;20024;-63
2023/09/23 00:45:31;;;;;;;0.88;0.50;;;15.50;99.90;;;;;;5075149;28;20024;-64
2023/09/23 00:47:58;;;;;;;1.10;0.40;;;15.50;99.90;;;;;;5073339;28;20036;-64
2023/09/23 00:50:24;;;;;;;0.50;0.50;;;15.50;99.90;;;;;;5073403;28;20039;-64
2023/09/23 00:52:51;;;;;;;0.60;0.60;;;15.50;99.90;;;;;;5074924;28;20063;-63
2023/09/23 00:55:22;;;;;;;0.95;0.80;;;15.50;99.90;;;;;;5073395;28;20021;-64
2023/09/23 00:57:49;;;;;;;0.57;0.57;;;15.40;99.90;;;;;;5074838;28;20037;-64
2023/09/23 01:00:23;;;;;;;1.75;0.60;;;15.40;99.90;;;;;;5074356;28;20115;-64
2023/09/23 01:02:48;;;;;;;0.80;0.80;;;15.40;99.90;;;;;;5073411;28;20119;-64
2023/09/23 01:05:18;;;;;;;0.70;0.70;;;15.40;99.90;;;;;;5074006;28;20490;-64
2023/09/23 01:07:45;;;;;;;1.08;0.98;;;15.40;99.90;;;;;;5074353;28;20024;-63
2023/09/23 01:10:12;;;;;;;0.95;0.88;;;15.40;99.90;;;;;;5073895;28;20457;-64
2023/09/23 01:12:39;;;;;;;0.60;0.60;;;15.50;99.90;;;;;;5074538;28;20078;-64
2023/09/23 01:15:17;;;;;;;1.05;0.85;;;15.40;99.90;;;;;;5072981;28;20028;-64
2023/09/23 01:17:46;;;;;;;1.83;0.93;;;15.40;99.90;;;;;;5074293;28;20021;-64
2023/09/23 01:20:13;;;;;;;2.30;0.90;;;15.40;99.90;;;;;;5072792;28;20035;-64
2023/09/23 01:22:39;;;;;;;0.75;0.75;;;15.40;99.90;;;;;;5072672;28;20123;-63
2023/09/23 01:25:05;;;;;;;1.02;1.02;;;15.50;99.90;;;;;;5074304;28;20020;-63
2023/09/23 01:27:34;;;;;;;0.80;0.80;;;15.40;99.90;;;;;;5074188;28;20043;-63
2023/09/23 01:30:05;;;;;;;0.70;0.70;;;15.40;99.90;;;;;;5074453;28;20470;-63
2023/09/23 01:32:51;;;;;;;3.17;0.70;;;15.40;99.90;;;;;;5072655;28;20119;-64
2023/09/23 01:35:18;;;;;;;0.60;0.60;;;15.30;99.90;;;;;;5065583;28;20052;-63
2023/09/23 01:37:45;;;;;;;0.98;0.82;;;15.30;99.90;;;;;;5054018;28;20021;-64
2023/09/23 01:40:17;;;;;;;1.50;0.60;;;15.30;99.90;;;;;;5053721;28;20029;-63
2023/09/23 01:42:49;;;;;;;1.33;1.00;;;15.40;99.90;;;;;;5053886;28;20033;-64
2023/09/23 01:45:15;;;;;;;1.60;0.93;;;15.40;99.90;;;;;;5053704;28;20035;-64
2023/09/23 01:47:41;;;;;;;1.05;1.00;;;15.40;99.90;;;;;;5053693;28;20115;-64
2023/09/23 01:50:09;;;;;;;1.63;1.52;;;15.40;99.90;;;;;;5053451;28;20021;-64
2023/09/23 01:52:36;;;;;;;0.93;0.93;;;15.40;99.90;;;;;;5035936;28;20116;-64
2023/09/23 01:55:03;;;;;;;1.77;1.38;;;15.50;99.90;;;;;;5053723;28;20029;-64
2023/09/23 01:57:30;;;;;;;1.60;1.27;;;15.40;99.90;;;;;;5053572;28;20111;-64
2023/09/23 01:59:56;;;;;;;2.72;1.40;;;15.40;99.90;;;;;;5053289;28;20449;-64
2023/09/23 02:02:21;;;;;;;1.40;1.30;;;15.40;99.90;;;;;;5053525;28;20056;-63
2023/09/23 02:04:47;;;;;;;1.67;1.20;;;15.40;99.90;;;;;;5053293;28;20531;-64
2023/09/23 02:07:14;;;;;;;1.17;1.10;;;15.50;99.90;;;;;;5053846;28;20025;-64
2023/09/23 02:09:40;;;;;;;1.30;1.20;;;15.40;99.90;;;;;;5053521;28;20087;-64
2023/09/23 02:12:06;;;;;;;1.67;1.05;;;15.40;99.90;;;;;;5053484;28;20029;-63
2023/09/23 02:14:31;;;;;;;1.73;1.33;;;15.30;99.90;;;;;;5053374;28;20094;-64
2023/09/23 02:16:57;;;;;;;1.40;1.30;;;15.40;99.90;;;;;;5035731;28;20033;-63
2023/09/23 02:19:24;;;;;;;1.35;1.27;;;15.30;99.90;;;;;;5053365;28;20025;-64
2023/09/23 02:21:51;;;;;;;1.17;1.10;;;15.30;99.90;;;;;;5053333;28;20488;-64
2023/09/23 02:24:18;;;;;;;1.48;1.20;;;15.30;99.90;;;;;;5036418;28;20029;-64
2023/09/23 02:26:48;;;;;;;1.10;1.10;;;15.30;99.90;;;;;;5035591;28;20029;-64
2023/09/23 02:29:15;;;;;;;2.70;1.20;;;15.30;99.90;;;;;;5035530;28;20116;-64
2023/09/23 02:31:47;;;;;;;1.55;1.42;;;15.30;99.90;;;;;;5053512;28;20040;-64
2023/09/23 02:34:17;;;;;;;1.95;1.40;;;15.30;99.90;;;;;;5035466;28;20107;-64
2023/09/23 02:36:45;;;;;;;1.77;1.63;;;15.30;99.90;;;;;;5053559;28;20061;-64
2023/09/23 02:39:20;;;;;;;2.38;1.90;;;15.30;99.90;;;;;;5053450;28;20155;-63
2023/09/23 02:41:49;;;;;;;2.83;1.70;;;15.20;99.90;;;;;;5053386;28;20028;-64
2023/09/23 02:44:19;;;;;;;2.05;1.80;;;15.20;99.90;;;;;;5052971;28;20036;-63
2023/09/23 02:46:46;;;;;;;1.75;1.65;;;15.10;99.90;;;;;;5055131;28;20063;-64
2023/09/23 02:49:12;;;;;;;2.35;1.90;;;15.10;99.90;;;;;;5056983;28;20021;-64
2023/09/23 02:51:38;;;;;;;1.60;1.50;;;15.10;99.90;;;;;;5056858;28;20457;-63
2023/09/23 02:54:05;;;;;;;2.00;1.88;;;15.00;99.90;;;;;;5038893;28;20060;-64
2023/09/23 02:56:34;;;;;;;2.20;2.00;;;15.00;99.90;;;;;;5038930;28;20025;-64
2023/09/23 02:59:00;;;;;;;2.17;1.98;;;15.00;99.90;;;;;;5038893;28;20121;-64
2023/09/23 03:01:27;;;;;;;1.73;1.63;;;15.00;99.90;;;;;;5056690;28;20029;-63
2023/09/23 03:03:54;;;;;;;3.88;1.90;;;15.00;99.90;;;;;;5056890;28;20453;-64
2023/09/23 03:06:21;;;;;;;3.10;1.63;;;15.00;99.90;;;;;;5056721;28;20534;-64
2023/09/23 03:08:53;;;;;;;1.90;1.80;;;14.90;99.90;;;;;;5056510;28;20021;-64
2023/09/23 03:11:20;;;;;;;2.03;1.80;;;15.00;99.90;;;;;;5056735;28;20524;-65
2023/09/23 03:13:45;;;;;;;2.20;1.98;;;14.90;99.90;;;;;;5038854;28;20104;-66
2023/09/23 03:16:14;;;;;;;2.03;1.77;;;14.90;99.90;;;;;;5057232;28;20029;-65
2023/09/23 03:19:10;;;;;;;2.25;2.10;;;14.90;99.90;;;;;;5039662;28;20431;-65
2023/09/23 03:21:45;;;;;;;3.20;1.88;;;14.80;99.90;;;;;;5057075;28;20055;-65
2023/09/23 03:24:11;;;;;;;2.05;1.95;;;14.70;99.90;;;;;;5058615;28;20025;-65
2023/09/23 03:26:36;;;;;;;3.10;2.30;;;14.60;99.90;;;;;;5056753;28;20381;-64
2023/09/23 03:29:06;;;;;;;3.03;2.63;;;14.60;99.90;;;;;;5056177;28;20021;-64
2023/09/23 03:31:31;;;;;;;2.42;2.22;;;14.50;99.90;;;;;;5038261;28;20098;-65
2023/09/23 03:33:57;;;;;;;3.63;2.53;;;14.50;99.90;;;;;;5055827;28;20060;-65
2023/09/23 03:36:25;;;;;;;2.92;2.67;;;14.50;99.90;;;;;;5068256;28;20489;-64
2023/09/23 03:38:51;;;;;;;2.80;2.45;;;14.50;99.90;;;;;;5076058;28;20032;-64
2023/09/23 03:41:17;;;;;;;2.97;2.67;;;14.40;99.90;;;;;;5075841;28;20031;-64
2023/09/23 03:43:43;;;;;;;3.40;2.80;;;14.40;99.90;;;;;;5075667;28;20041;-64
2023/09/23 03:46:14;;;;;;;3.33;3.03;;;14.40;99.90;;;;;;5074485;28;20052;-64
2023/09/23 03:48:40;;;;;;;5.10;3.83;;;14.30;99.90;;;;;;5074552;28;20105;-64
2023/09/23 03:51:06;;;;;;;4.78;3.78;;;14.40;99.90;;;;;;5075780;28;20485;-64
2023/09/23 03:53:32;;;;;;;4.78;4.10;;;14.40;99.90;;;;;;5074415;28;20035;-64
2023/09/23 03:56:00;;;;;;;4.45;4.05;;;14.30;99.90;;;;;;5076262;28;20107;-64
2023/09/23 03:58:27;;;;;;;5.03;4.50;;;14.30;99.90;;;;;;5075292;28;20028;-64
2023/09/23 04:00:56;;;;;;;5.40;4.38;;;14.30;99.90;;;;;;5074251;28;20032;-64
2023/09/23 04:03:22;;;;;;;5.95;4.30;;;14.30;99.90;;;;;;5075689;28;20024;-64
2023/09/23 04:05:55;;;;;;;5.80;5.00;;;14.30;99.90;;;;;;5075841;28;20025;-64
2023/09/23 04:08:20;;;;;;;5.70;4.40;;;14.30;99.90;;;;;;5074129;28;20029;-64
2023/09/23 04:10:46;;;;;;;4.63;4.10;;;14.30;99.90;;;;;;5075428;28;20028;-64
2023/09/23 04:13:14;;;;;;;5.05;4.30;;;14.30;99.90;;;;;;5075871;28;20381;-64
2023/09/23 04:15:40;;;;;;;8.30;4.28;;;14.20;99.90;;;;;;5075336;28;20461;-64
2023/09/23 04:18:06;;;;;;;4.72;4.22;;;14.20;99.90;;;;;;5075772;28;20112;-64
2023/09/23 04:20:32;;;;;;;5.78;4.32;;;14.20;99.90;;;;;;5075012;28;20106;-64
2023/09/23 04:22:58;;;;;;;5.55;4.85;;;14.20;99.90;;;;;;5075278;28;20025;-64
2023/09/23 04:25:23;;;;;;;5.43;4.47;;;14.20;99.90;;;;;;5074867;28;20021;-65
2023/09/23 04:27:49;;;;;;;4.53;3.88;;;14.20;99.90;;;;;;5075253;28;20111;-64
2023/09/23 04:30:15;;;;;;;4.65;4.15;;;14.20;99.90;;;;;;5073696;28;20031;-64
2023/09/23 04:32:42;;;;;;;6.95;4.88;;;14.10;99.90;;;;;;5074918;28;20465;-64
2023/09/23 04:35:12;;;;;;;7.28;4.40;;;14.10;99.90;;;;;;5068414;28;20049;-64
2023/09/23 04:37:39;;;;;;;6.20;4.43;;;14.20;99.90;;;;;;5037009;28;20036;-64
2023/09/23 04:40:09;;;;;;;5.55;4.40;;;14.10;99.90;;;;;;5055099;28;20020;-64
2023/09/23 04:42:35;;;;;;;4.78;4.35;;;14.10;99.90;;;;;;5054888;28;20032;-64
2023/09/23 04:45:02;;;;;;;6.20;3.90;;;14.10;99.90;;;;;;5054845;28;20079;-64
2023/09/23 04:47:28;;;;;;;5.50;3.92;;;14.10;99.90;;;;;;5054750;28;20029;-64
2023/09/23 04:49:55;;;;;;;6.40;4.20;;;14.10;99.90;;;;;;5036740;28;20025;-64
2023/09/23 04:52:20;;;;;;;5.53;3.50;;;14.10;99.90;;;;;;5054962;28;20104;-64
2023/09/23 04:54:46;;;;;;;6.05;4.00;;;14.10;99.90;;;;;;5036809;28;20052;-58
2023/09/23 04:57:14;;;;;;;3.50;2.70;;;14.10;99.90;;;;;;5054626;28;20029;-56
2023/09/23 04:59:40;;;;;;;6.00;3.72;;;14.30;99.90;;;;;;5054657;28;20021;-56
2023/09/23 05:02:05;;;;;;;4.20;3.15;;;14.40;99.90;;;;;;5054324;28;20075;-56
2023/09/23 05:04:31;;;;;;;3.15;2.83;;;14.40;99.90;;;;;;5054347;28;20039;-57
2023/09/23 05:06:57;;;;;;;5.32;3.08;;;14.50;99.90;;;;;;5054256;28;20118;-57
2023/09/23 05:09:26;;;;;;;2.95;2.67;;;14.50;99.90;;;;;;5053515;28;20110;-59
2023/09/23 05:11:52;;;;;;;5.82;2.67;;;14.50;99.90;;;;;;5053897;28;20100;-57
2023/09/23 05:14:18;;;;;;;2.33;2.03;;;14.50;99.90;;;;;;5054164;28;20027;-57
2023/09/23 05:16:43;;;;;;;2.72;2.13;;;14.60;99.90;;;;;;5054052;28;20407;-56
2023/09/23 05:19:11;;;;;;;2.22;2.03;;;14.70;99.90;;;;;;5053771;28;20037;-57
2023/09/23 05:21:36;;;;;;;1.70;1.60;;;14.70;99.90;;;;;;5036060;28;20129;-59
2023/09/23 05:24:02;;;;;;;2.20;1.95;;;14.70;99.90;;;;;;5054067;28;20091;-57
2023/09/23 05:26:28;;;;;;;2.47;1.80;;;14.70;99.90;;;;;;5054261;28;20434;-57
2023/09/23 05:28:53;;;;;;;4.15;2.03;;;14.80;99.90;;;;;;5053598;28;20456;-57
2023/09/23 05:31:19;;;;;;;2.15;1.95;;;14.70;99.90;;;;;;5035705;28;20377;-56
2023/09/23 05:33:45;;;;;;;1.85;1.70;;;14.80;99.90;;;;;;5035887;28;20029;-57
2023/09/23 05:36:10;;;;;;;2.05;1.40;;;14.80;99.90;;;;;;5054233;28;20053;-56
2023/09/23 05:38:36;;;;;;;1.77;1.40;;;14.70;99.90;;;;;;5053715;28;20148;-56
2023/09/23 05:41:05;;;;;;;2.38;1.52;;;14.70;99.90;;;;;;5035976;28;20032;-56
2023/09/23 05:43:31;;;;;;;1.60;1.30;;;14.70;99.90;;;;;;5053751;28;20032;-57
2023/09/23 05:45:57;;;;;;;2.42;1.65;;;14.70;99.90;;;;;;5035814;28;20531;-63
2023/09/23 05:48:22;;;;;;;2.53;1.60;;;14.70;99.90;;;;;;5035787;28;20028;-64
2023/09/23 05:50:49;;;;;;;2.08;1.58;;;14.60;99.90;;;;;;5053726;28;20025;-64
2023/09/23 05:53:15;;;;;;;2.50;1.77;;;14.60;99.90;;;;;;5053663;28;20440;-63
2023/09/23 05:55:40;;;;;;;1.98;1.70;;;14.60;99.90;;;;;;5035381;28;20038;-63
2023/09/23 05:58:06;;;;;;;2.45;1.67;;;14.60;99.90;;;;;;5035741;28;20032;-63
2023/09/23 06:00:31;;;;;;;1.77;1.67;;;14.60;99.90;;;;;;5053883;28;20032;-63
2023/09/23 06:02:57;;;;;;;3.80;1.92;;;14.60;99.90;;;;;;5053803;28;20098;-63
2023/09/23 06:05:23;;;;;;;2.78;1.48;;;14.50;99.90;;;;;;5053525;28;20029;-64
2023/09/23 06:07:49;;;;;;;2.33;1.80;;;14.50;99.90;;;;;;5053505;28;20029;-63
2023/09/23 06:10:15;;;;;;;1.58;1.45;;;14.50;99.90;;;;;;5035485;28;20021;-65
2023/09/23 06:12:40;;;;;;;3.83;1.58;;;14.50;99.90;;;;;;5053374;28;20033;-65
2023/09/23 06:15:08;;;;;;;2.80;1.60;;;14.60;99.90;;;;;;5035659;28;20029;-65
2023/09/23 06:17:37;;;;;;;2.65;1.60;;;14.60;99.90;;;;;;5035531;28;20029;-66
2023/09/23 06:20:03;;;;;;;1.50;1.40;;;14.60;99.90;;;;;;5037199;28;20025;-65
2023/09/23 06:22:29;;;;;;;1.83;1.73;;;14.60;99.90;;;;;;5039460;28;20127;-66
2023/09/23 06:24:54;;;;;;;1.90;1.80;;;14.70;99.90;;;;;;5039431;28;20060;-66
2023/09/23 06:27:20;;;;;;;2.85;1.60;;;14.70;99.90;;;;;;5057460;28;20059;-66
2023/09/23 06:29:46;;;;;;;2.50;1.55;;;14.70;99.90;;;;;;5057242;28;20025;-66
2023/09/23 06:32:12;;;;;;;1.65;1.40;;;14.70;99.90;;;;;;5055979;28;20040;-67
2023/09/23 06:34:38;;;;;;;2.30;1.50;;;14.80;99.90;;;;;;5056635;28;20068;-67
2023/09/23 06:37:03;;;;;;;2.30;1.70;;;14.80;99.90;;;;;;5039181;28;20033;-67
2023/09/23 06:39:29;;;;;;;2.95;2.13;;;14.80;99.90;;;;;;5057664;28;20055;-67
2023/09/23 06:41:55;;;;;;;1.88;1.30;;;14.90;99.90;;;;;;5056635;28;20029;-67
2023/09/23 06:44:21;;;;;;;1.40;1.30;;;14.90;99.90;;;;;;5056738;28;20037;-67
2023/09/23 06:46:47;;;;;;;2.08;1.23;;;15.00;99.90;;;;;;5056584;28;20048;-67
2023/09/23 06:49:12;;;;;;;1.95;1.60;;;15.10;99.90;;;;;;5056866;28;20029;-67
2023/09/23 06:51:38;;;;;;;1.58;1.30;;;15.20;99.90;;;;;;5038951;28;20493;-67
2023/09/23 06:54:04;;;;;;;2.47;1.58;;;15.20;99.90;;;;;;5056626;28;20021;-67
2023/09/23 06:56:30;;;;;;;1.30;1.20;;;15.20;99.90;;;;;;5038626;28;20473;-66
2023/09/23 06:58:56;;;;;;;1.20;1.08;;;15.10;99.90;;;;;;5038781;28;20036;-66
2023/09/23 07:01:21;;;;;;;1.35;1.20;;;15.20;99.90;;;;;;5056703;28;20087;-66
2023/09/23 07:03:47;;;;;;;2.30;1.00;;;15.20;99.90;;;;;;5056942;28;20037;-66
2023/09/23 07:06:13;;;;;;;2.05;1.13;;;15.20;99.90;;;;;;5038845;28;20420;-66
2023/09/23 07:08:39;;;;;;;1.50;1.08;;;15.20;99.90;;;;;;5056687;28;20033;-66
2023/09/23 07:11:12;;;;;;;2.72;1.10;;;15.20;99.90;;;;;;5056489;28;20036;-66
2023/09/23 07:13:37;;;;;;;2.35;0.90;;;15.30;99.90;;;;;;5038494;28;20028;-65
2023/09/23 07:16:03;;;;;;;1.17;1.00;;;15.40;99.90;;;;;;5056120;28;20029;-66
2023/09/23 07:18:28;;;;;;;1.23;1.10;;;15.30;99.90;;;;;;5056054;28;20029;-66
2023/09/23 07:20:58;;;;;;;3.47;1.10;;;15.40;99.90;;;;;;5056450;28;20111;-67
2023/09/23 07:23:23;;;;;;;;;;;15.40;99.90;;;;;;5056890;28;20032;-66
2023/09/23 07:25:50;;;;;;;2.45;1.65;;;15.40;99.90;;;;;;5056296;28;20383;-66
2023/09/23 07:28:16;;;;;;;2.13;1.63;;;15.40;99.90;;;;;;5038425;28;20166;-66
2023/09/23 07:30:42;;;;;;;3.22;1.55;;;15.50;99.90;;;;;;5038163;28;20509;-66
2023/09/23 07:33:07;;;;;;;2.53;1.77;;;15.50;99.90;;;;;;5054941;28;20035;-57
2023/09/23 07:35:33;;;;;;;4.22;1.80;;;15.50;99.90;;;;;;5054622;28;20049;-58
2023/09/23 07:38:00;;;;;;;3.25;2.17;;;15.60;99.90;;;;;;5075912;28;20039;-58
2023/09/23 07:40:27;;;;;;;3.45;1.90;;;15.60;99.90;;;;;;5075692;28;20028;-58
2023/09/23 07:42:53;;;;;;;2.78;1.77;;;15.70;99.90;;;;;;5075773;28;20574;-58
2023/09/23 07:45:19;;;;;;;3.08;1.65;;;15.80;99.90;;;;;;5075912;28;20107;-58
2023/09/23 07:47:45;;;;;;;2.60;1.77;;;15.90;99.90;;;;;;5075612;28;20488;-57
2023/09/23 07:50:11;;;;;;;4.45;2.50;;;16.00;99.90;;;;;;5075592;28;20527;-58
2023/09/23 07:52:37;;;;;;;2.47;1.90;;;16.00;99.90;;;;;;5075571;28;20031;-58
2023/09/23 07:55:04;;;;;;;2.47;2.00;;;16.00;99.90;;;;;;5074364;28;20433;-58
2023/09/23 07:57:32;;;;;;;4.07;2.28;;;16.10;99.90;;;;;;5074180;28;20035;-58
2023/09/23 07:59:58;;;;;;;3.60;1.92;;;16.20;99.90;;;;;;5075796;28;20078;-58
2023/09/23 08:02:23;;;;;;;1.92;1.83;;;16.20;99.90;;;;;;5074021;28;20039;-58
2023/09/23 08:04:49;;;;;;;2.17;1.90;;;16.30;99.90;;;;;;5074973;28;20028;-60
2023/09/23 08:07:15;;;;;;;2.20;2.00;;;16.20;99.90;;;;;;5075400;28;20024;-58
2023/09/23 08:09:41;;;;;;;3.08;2.00;;;16.30;99.90;;;;;;5075304;28;20378;-57
2023/09/23 08:12:07;;;;;;;2.83;2.00;;;16.20;99.90;;;;;;5073955;28;20073;-65
2023/09/23 08:14:32;;;;;;;4.53;2.08;;;16.20;99.90;;;;;;5075002;28;20039;-65
2023/09/23 08:16:58;;;;;;;4.47;2.25;;;16.00;99.90;;;;;;5075253;28;20368;-65
2023/09/23 08:19:24;;;;;;;3.83;2.80;;;15.90;99.90;;;;;;5075133;28;20349;-65
2023/09/23 08:21:49;;;;;;;5.32;3.15;;;15.80;99.90;;;;;;5074985;28;20111;-65
2023/09/23 08:24:16;;;;;;;3.72;2.90;;;15.70;99.90;;;;;;5075048;28;20063;-65
2023/09/23 08:26:41;;;;;;;5.78;3.40;;;15.60;99.90;;;;;;5074802;28;20029;-65
2023/09/23 08:29:07;;;;;;;4.45;3.33;;;15.50;99.90;;;;;;5074988;28;20107;-65
2023/09/23 08:31:33;;;;;;;3.65;3.10;;;15.50;99.90;;;;;;5073951;28;20028;-65
2023/09/23 08:33:58;;;;;;;5.20;3.35;;;15.60;99.90;;;;;;5074961;28;20104;-65
2023/09/23 08:36:24;;;;;;;5.72;3.63;;;15.70;99.90;;;;;;5058214;28;20049;-64
2023/09/23 08:38:50;;;;;;;5.38;3.28;;;15.70;99.90;;;;;;5037078;28;20461;-66
2023/09/23 08:41:21;;;;;;;3.88;2.90;;;13.70;99.90;;;;;;5054425;28;20457;-66
2023/09/23 08:43:51;;;;;;;4.95;3.55;;;15.90;99.90;;;;;;5036171;28;20035;-66
2023/09/23 08:46:23;;;;;;;3.92;3.10;;;16.00;99.90;;;;;;5058060;28;20025;-65
2023/09/23 08:48:49;;;;;;;4.82;2.92;;;16.10;99.90;;;;;;5057909;28;20575;-67
2023/09/23 08:51:19;;;;;;;4.82;3.20;;;16.10;99.90;;;;;;5059137;28;20028;-65
2023/09/23 08:53:46;;;;;;;4.68;3.45;;;16.10;99.90;;;;;;5038964;28;20037;-65
2023/09/23 08:56:12;;;;;;;3.88;3.05;;;16.20;99.90;;;;;;5037425;28;20111;-65
2023/09/23 08:58:38;;;;;;;4.78;3.00;;;16.20;99.90;;;;;;5036439;28;20136;-65
2023/09/23 09:01:03;;;;;;;5.22;2.95;;;16.40;99.90;;;;;;5036476;28;20032;-65
2023/09/23 09:03:30;;;;;;;4.22;3.00;;;16.50;99.90;;;;;;5054257;28;20082;-65
2023/09/23 09:05:56;;;;;;;3.40;2.63;;;16.50;99.90;;;;;;5054190;28;20021;-65
2023/09/23 09:08:22;;;;;;;3.22;2.50;;;16.60;99.90;;;;;;5054618;28;20491;-65
2023/09/23 09:10:47;;;;;;;4.22;2.90;;;16.60;99.90;;;;;;5054187;28;20029;-65
2023/09/23 09:13:17;;;;;;;2.95;2.70;;;16.50;99.90;;;;;;5036325;28;20112;-65
2023/09/23 09:15:42;;;;;;;5.32;2.78;;;18.40;99.90;;;;;;5036194;28;20033;-65
2023/09/23 09:18:08;;;;;;;2.33;2.13;;;16.60;99.90;;;;;;5054176;28;20431;-65
2023/09/23 09:20:34;;;;;;;7.78;2.45;;;16.60;99.90;;;;;;5053627;28;20057;-65
2023/09/23 09:23:00;;;;;;;2.50;2.30;;;16.60;99.90;;;;;;5035978;28;20087;-65
2023/09/23 09:25:26;;;;;;;3.10;2.38;;;16.60;99.90;;;;;;5035978;28;20468;-65
2023/09/23 09:27:52;;;;;;;3.05;2.42;;;16.60;99.90;;;;;;5053909;28;20029;-65
2023/09/23 09:30:19;;;;;;;3.85;2.67;;;16.60;99.90;;;;;;5053915;28;20029;-65
2023/09/23 09:32:46;;;;;;;3.72;2.25;;;16.70;99.90;;;;;;5053842;28;20032;-59
2023/09/23 09:35:17;;;;;;;3.55;2.55;;;16.90;99.90;;;;;;5053829;28;20052;-59
2023/09/23 09:37:48;;;;;;;3.40;1.90;;;17.10;99.90;;;;;;5035926;28;20025;-60
2023/09/23 09:40:18;;;;;;;4.10;2.45;;;17.20;99.90;;;;;;5035788;28;20029;-59
2023/09/23 09:42:48;;;;;;;5.10;2.25;;;17.40;99.90;;;;;;5053622;28;20032;-69
2023/09/23 09:45:16;;;;;;;4.13;2.72;;;17.50;99.90;;;;;;5053616;28;20029;-69
2023/09/23 09:47:44;;;;;;;3.85;2.03;;;17.60;99.90;;;;;;5035753;28;20025;-70
2023/09/23 09:50:14;;;;;;;4.10;2.53;;;17.70;99.90;;;;;;5035941;28;20029;-69
2023/09/23 09:52:46;;;;;;;4.55;2.65;;;17.90;99.90;;;;;;5053611;28;20036;-68
2023/09/23 09:55:19;;;;;;;5.85;2.95;;;18.10;99.90;;;;;;5053832;28;20029;-58
2023/09/23 09:57:48;;;;;;;14.43;2.55;;;18.20;99.90;;;;;;5035962;28;20525;-61
2023/09/23 10:00:27;;;;;;;9.10;3.53;;;18.20;99.90;;;;;;5053586;28;20483;-61
2023/09/23 10:03:01;;;;;;;7.00;2.30;;;18.20;99.90;;;;;;5035698;28;20424;-62
2023/09/23 10:05:53;;;;;;;2.45;2.10;;;18.20;99.90;;;;;;5035471;28;20049;-62
2023/09/23 10:08:24;;;;;;;2.33;2.10;;;18.30;99.90;;;;;;5035845;28;20381;-62
2023/09/23 10:10:58;;;;;;;5.47;2.10;;;18.30;99.90;;;;;;5036400;28;20025;-62
2023/09/23 10:13:27;;;;;;;2.80;1.90;;;18.40;99.90;;;;;;5053467;28;20037;-60
2023/09/23 10:16:19;;;;;;;3.25;1.83;;;18.30;99.90;;;;;;5035498;28;20479;-61
2023/09/23 10:18:59;;;;;;;2.25;2.00;;;18.30;99.90;;;;;;5035541;28;20472;-61
2023/09/23 10:21:29;;;;;;;3.05;1.85;;;18.40;99.90;;;;;;5053086;28;20056;-60
2023/09/23 10:23:56;;;;;;;2.85;2.25;;;18.40;99.90;;;;;;5053184;28;20111;-60
2023/09/23 10:26:25;;;;;;;2.88;2.03;;;18.50;99.90;;;;;;5053337;28;20492;-60
2023/09/23 10:29:03;;;;;;;3.97;2.50;;;18.50;99.90;;;;;;5053055;28;20029;-60
2023/09/23 10:31:33;;;;;;;3.38;2.10;;;18.50;99.90;;;;;;5053289;28;20025;-60
2023/09/23 10:34:06;;;;;;;3.38;1.73;;;18.60;99.90;;;;;;5053211;28;20071;-60
2023/09/23 10:36:32;;;;;;;2.15;1.95;;;18.70;99.90;;;;;;5067734;28;20131;-61
2023/09/23 10:38:59;;;;;;;3.53;2.15;;;19.00;99.90;;;;;;5073284;28;20024;-60
2023/09/23 10:41:35;;;;;;;2.65;1.75;;;19.20;99.90;;;;;;5073127;28;20418;-61
2023/09/23 10:44:04;;;;;;;2.58;1.83;;;19.50;99.90;;;;;;5073502;28;20024;-60
2023/09/23 10:46:33;;;;;;;2.13;1.70;;;19.80;99.90;;;;;;5073143;28;20083;-60
2023/09/23 10:48:59;;;;;;;;;;;19.90;99.90;;;;;;5073565;28;20025;-60
2023/09/23 10:51:26;;;;;;;2.28;2.00;;;20.00;99.90;;;;;;5071850;28;19943;-61
2023/09/23 10:53:51;;;;;;;3.35;1.45;;;19.90;99.90;;;;;;5071721;28;20021;-60
2023/09/23 10:56:21;;;;;;;4.30;1.88;;;19.70;99.90;;;;;;5071993;28;20036;-60
2023/09/23 10:58:51;;;;;;;3.30;1.90;;;19.50;99.90;;;;;;5073376;28;20067;-61
2023/09/23 11:01:23;;;;;;;6.63;2.60;;;19.30;99.90;;;;;;5073070;28;20085;-60
2023/09/23 11:03:51;;;;;;;2.60;2.35;;;19.10;99.90;;;;;;5072996;28;20029;-60
2023/09/23 11:06:17;;;;;;;5.15;2.25;;;18.90;99.90;;;;;;5072919;28;20021;-60
2023/09/23 11:08:43;;;;;;;2.10;2.00;;;19.00;99.90;;;;;;5075032;28;20033;-60
2023/09/23 11:11:09;;;;;;;3.22;2.50;;;19.00;99.90;;;;;;5075240;28;20161;-60
2023/09/23 11:13:35;;;;;;;2.63;2.20;;;19.10;99.90;;;;;;5076476;28;20048;-64
2023/09/23 11:16:10;;;;;;;2.60;2.30;;;18.90;99.90;;;;;;5076537;28;20028;-64
2023/09/23 11:18:37;;;;;;;4.47;2.40;;;18.60;99.90;;;;;;5075214;28;20028;-64
2023/09/23 11:21:03;;;;;;;2.30;2.10;;;18.50;99.90;;;;;;5075059;28;20037;-64
2023/09/23 11:23:29;;;;;;;2.70;1.88;;;18.30;99.90;;;;;;5074948;28;20127;-64
2023/09/23 11:25:56;;;;;;;3.15;2.20;;;18.20;99.90;;;;;;5074396;28;20024;-64
2023/09/23 11:28:23;;;;;;;3.40;2.40;;;18.00;99.90;;;;;;5076122;28;20027;-64
2023/09/23 11:30:50;;;;;;;3.40;2.05;;;17.90;99.90;;;;;;5075872;28;20442;-64
2023/09/23 11:33:16;;;;;;;4.80;2.10;;;18.00;99.90;;;;;;5076277;28;20031;-64
2023/09/23 11:35:43;;;;;;;1.90;1.70;;;18.00;99.90;;;;;;5064845;28;20389;-64
2023/09/23 11:38:10;;;;;;;3.10;1.77;;;18.00;99.90;;;;;;5037576;28;20496;-64
2023/09/23 11:40:35;;;;;;;6.15;2.60;;;18.10;99.90;;;;;;5055863;28;20112;-64
2023/09/23 11:43:01;;;;;;;2.55;2.22;;;18.00;99.90;;;;;;5056218;28;20459;-64
2023/09/23 11:45:27;;;;;;;2.60;2.40;;;17.90;99.90;;;;;;5055707;28;20025;-64
2023/09/23 11:47:56;;;;;;;2.55;2.35;;;17.80;99.90;;;;;;5055751;28;20484;-64
2023/09/23 11:50:22;;;;;;;2.42;2.05;;;17.90;99.90;;;;;;5055707;28;20369;-64
2023/09/23 11:52:48;;;;;;;7.15;2.00;;;18.00;99.90;;;;;;5055362;28;20040;-64
2023/09/23 11:55:14;;;;;;;2.40;2.28;;;18.10;99.90;;;;;;5055403;28;20029;-64
2023/09/23 11:57:40;;;;;;;2.47;2.25;;;18.10;99.90;;;;;;5055275;28;20151;-63
2023/09/23 12:00:10;;;;;;;2.25;2.03;;;18.20;99.90;;;;;;5055580;28;20025;-63
2023/09/23 12:02:38;;;;;;;2.25;2.05;;;18.30;99.90;;;;;;5055526;28;20024;-63
2023/09/23 12:05:06;;;;;;;2.20;2.00;;;18.40;99.90;;;;;;5037638;28;20118;-65
2023/09/23 12:07:32;;;;;;;2.22;2.13;;;18.50;99.90;;;;;;5037553;28;20025;-64
2023/09/23 12:09:58;;;;;;;2.03;1.88;;;18.50;99.90;;;;;;5055684;28;20060;-65
2023/09/23 12:12:24;;;;;;;4.22;2.20;;;18.40;99.90;;;;;;5055036;28;20064;-64
2023/09/23 12:14:50;;;;;;;1.63;1.52;;;18.20;99.90;;;;;;5037274;28;20090;-64
2023/09/23 12:17:16;;;;;;;2.10;1.92;;;18.20;99.90;;;;;;5055054;28;20033;-65
2023/09/23 12:19:45;;;;;;;4.32;1.80;;;18.30;99.90;;;;;;5037288;28;20029;-65
2023/09/23 12:22:12;;;;;;;2.15;1.88;;;18.30;99.90;;;;;;5054828;28;20032;-65
2023/09/23 12:24:39;;;;;;;2.13;1.92;;;18.40;99.90;;;;;;5037454;28;20112;-64
2023/09/23 12:27:04;;;;;;;2.00;1.90;;;18.40;99.90;;;;;;5055910;28;20024;-64
2023/09/23 12:29:30;;;;;;;4.70;3.22;;;18.40;99.90;;;;;;5037285;28;20113;-63
2023/09/23 12:31:56;;;;;;;3.35;2.40;;;18.50;99.90;;;;;;5055159;28;20033;-63
2023/09/23 12:34:22;;;;;;;2.67;2.42;;;18.70;99.90;;;;;;5054476;28;20435;-63
2023/09/23 12:36:49;;;;;;;2.40;2.20;;;18.90;99.90;;;;;;5055228;28;20025;-63
2023/09/23 12:39:16;;;;;;;8.52;2.60;;;19.30;99.90;;;;;;5054951;28;20033;-63
2023/09/23 12:41:42;;;;;;;4.18;2.15;;;19.50;99.90;;;;;;5054753;28;20083;-64
2023/09/23 12:44:08;;;;;;;2.30;2.20;;;20.20;99.90;;;;;;5054671;28;20074;-63
2023/09/23 12:46:33;;;;;;;2.10;1.90;;;20.70;99.90;;;;;;5036498;28;20387;-62
2023/09/23 12:48:59;;;;;;;3.15;2.10;;;21.10;99.90;;;;;;5054554;28;20033;-64